Weather at Vancouver International Airport

Public forecast

Using degrees Celsius for public forecast. Weather courtesy of forecast.io.

Current aviation weather report (METAR) for Vancouver International Airport

Retrieved 2020/10/31 00:00 UTC (37 minutes ago):

CYVR 310000Z 28017KT 20SM SCT062 SCT260 11/05 A3012 RMK SC4CI1 CI TR SLP201

Aviation forecast (TAF) for Vancouver International Airport

Retrieved 2020-10-31 00:43 UTC (0 seconds ago):

TAF CYVR 302339Z 3100/0106 28012G22KT P6SM SCT060 TEMPO 3100/3103 BKN060 FM310300 26012KT P6SM FEW060 FM310800 08008KT P6SM SCT020 TEMPO 3108/3117 BKN020 FM311700 08006KT P6SM SCT030 SCT100 FM312100 30007KT P6SM FEW030 RMK NXT FCST BY 310300Z